Hauptseite
METAR-TAF:

METAR-TAF

Flughäfen :

St. Moritz, Schweiz

Flughafen Engadin

Breite: 46-32-03N, Länge: 9-53-03E, Höhe: 1707 m

Beobachtung

Neuester Wetterbericht von vor 36 Minuten, um 19:20 UTC
Wind 5 kt aus Südwest, variierte zwischen Südost und West
Temperatur 1°C
Luftfeuchtigkeit 93%
Luftdruck 1011 hPa
Sichtweite 10 km oder mehr

METAR: LSZS 221920Z AUTO 22005KT 130V280 9999 NCD 01/00 Q1011

Zeit: 20:56 (19:56 UTC)

Prognose

Neuester Wetterbericht von vor 5 Stunden und 31 Minuten, um 14:25 UTC
Gültige Prognose vom 22 um 15 UTC bis 22 um 24 UTC
Wind 1 kt aus unterschiedlichen Richtungen
Sichtweite 10 km oder mehr
Leicht bewölkt in der Höhe von 1000 ft
Durchbrochene Bewölkung in der Höhe von 6200 ft
Zeitweise
vom 22 um 15 UTC bis 22 um 22 UTC
Sichtweite: 1500 m
in der Höhe von 1000 ft
Schnee

TAF: LSZS 221425Z 2215/2224 VRB01KT 9999 FEW010 BKN062 TX01/2215Z TEMPO 2215/2222 1500 SN VV010

Wetterbeobachtungen und Prognosen von mehr als 4000 Flughäfen (METAR und TAF Bericht).

Die verfügbaren Stationen werden durch gelbe und rote Markierungen auf der Karte dargestellt.

Führen Sie die Maus auf sie, um den Namen der Station zu sehen.

Darauf klicken, um die Beobachtung von Wetterbeobachtungen und Prognosen zu sehen.

Um die Karte zu ändern : klicken Sie auf den grünen Tasten mit einem schwarzen Kreuz Zum Vergrößern, auf den grünen Button mit einem Gedankenstrich zu verkleinern, oder auf die grünen Pfeile für benachbarte Karten.


METAR-TAF: